sensor_id;sensor_type;location;lat;lon;timestamp;pressure;altitude;pressure_sealevel;temperature;humidity
51297;BME280;37380;45.186;9.792;2024-02-26T00:01:05;100280.66;;;8.03;81.54
51297;BME280;37380;45.186;9.792;2024-02-26T00:03:32;100284.50;;;8.11;81.35
51297;BME280;37380;45.186;9.792;2024-02-26T00:06:02;100284.97;;;8.04;81.58
51297;BME280;37380;45.186;9.792;2024-02-26T00:08:29;100280.91;;;7.99;81.64
51297;BME280;37380;45.186;9.792;2024-02-26T00:10:57;100274.25;;;7.86;83.32
51297;BME280;37380;45.186;9.792;2024-02-26T00:13:24;100282.50;;;7.75;83.30
51297;BME280;37380;45.186;9.792;2024-02-26T00:15:51;100279.22;;;7.71;84.48
51297;BME280;37380;45.186;9.792;2024-02-26T00:18:18;100277.22;;;7.77;84.58
51297;BME280;37380;45.186;9.792;2024-02-26T00:20:45;100266.38;;;7.73;83.53
51297;BME280;37380;45.186;9.792;2024-02-26T00:23:15;100264.38;;;7.74;84.64
51297;BME280;37380;45.186;9.792;2024-02-26T00:25:42;100265.94;;;7.86;84.08
51297;BME280;37380;45.186;9.792;2024-02-26T00:28:10;100268.50;;;7.89;83.17
51297;BME280;37380;45.186;9.792;2024-02-26T00:30:37;100266.69;;;7.81;84.03
51297;BME280;37380;45.186;9.792;2024-02-26T00:33:04;100269.50;;;7.92;83.38
51297;BME280;37380;45.186;9.792;2024-02-26T00:35:31;100263.44;;;7.88;83.74
51297;BME280;37380;45.186;9.792;2024-02-26T00:37:58;100252.03;;;7.75;84.19
51297;BME280;37380;45.186;9.792;2024-02-26T00:40:26;100247.19;;;7.70;84.35
51297;BME280;37380;45.186;9.792;2024-02-26T00:42:54;100248.22;;;7.72;84.27
51297;BME280;37380;45.186;9.792;2024-02-26T00:45:21;100244.16;;;7.68;84.01
51297;BME280;37380;45.186;9.792;2024-02-26T00:47:48;100243.91;;;7.66;84.47
51297;BME280;37380;45.186;9.792;2024-02-26T00:50:15;100242.16;;;7.68;84.31
51297;BME280;37380;45.186;9.792;2024-02-26T00:52:43;100236.84;;;7.65;84.35
51297;BME280;37380;45.186;9.792;2024-02-26T00:55:10;100231.91;;;7.80;83.50
51297;BME280;37380;45.186;9.792;2024-02-26T00:57:37;100228.59;;;7.76;83.76
51297;BME280;37380;45.186;9.792;2024-02-26T01:00:04;100224.03;;;7.73;83.43
51297;BME280;37380;45.186;9.792;2024-02-26T01:02:32;100223.16;;;7.92;82.61
51297;BME280;37380;45.186;9.792;2024-02-26T01:04:59;100210.03;;;7.87;82.80
51297;BME280;37380;45.186;9.792;2024-02-26T01:07:26;100203.25;;;7.94;82.31
51297;BME280;37380;45.186;9.792;2024-02-26T01:09:53;100207.56;;;8.00;81.80
51297;BME280;37380;45.186;9.792;2024-02-26T01:12:20;100209.03;;;7.96;82.65
51297;BME280;37380;45.186;9.792;2024-02-26T01:14:48;100205.03;;;8.02;82.08
51297;BME280;37380;45.186;9.792;2024-02-26T01:17:14;100195.44;;;7.98;82.46
51297;BME280;37380;45.186;9.792;2024-02-26T01:19:42;100198.69;;;7.91;82.24
51297;BME280;37380;45.186;9.792;2024-02-26T01:22:09;100198.00;;;8.01;82.45
51297;BME280;37380;45.186;9.792;2024-02-26T01:24:36;100216.59;;;7.95;82.47
51297;BME280;37380;45.186;9.792;2024-02-26T01:27:03;100208.03;;;7.93;82.46
51297;BME280;37380;45.186;9.792;2024-02-26T01:29:30;100206.81;;;8.00;81.74
51297;BME280;37380;45.186;9.792;2024-02-26T01:31:57;100203.03;;;8.03;81.88
51297;BME280;37380;45.186;9.792;2024-02-26T01:34:24;100199.25;;;8.06;81.27
51297;BME280;37380;45.186;9.792;2024-02-26T01:36:51;100195.72;;;8.05;81.19
51297;BME280;37380;45.186;9.792;2024-02-26T01:39:18;100192.44;;;8.01;81.44
51297;BME280;37380;45.186;9.792;2024-02-26T01:41:45;100188.69;;;8.10;80.81
51297;BME280;37380;45.186;9.792;2024-02-26T01:44:12;100193.25;;;8.13;81.21
51297;BME280;37380;45.186;9.792;2024-02-26T01:46:41;100197.25;;;8.12;80.80
51297;BME280;37380;45.186;9.792;2024-02-26T01:49:11;100196.53;;;8.11;80.98
51297;BME280;37380;45.186;9.792;2024-02-26T01:51:40;100194.00;;;8.13;81.18
51297;BME280;37380;45.186;9.792;2024-02-26T01:54:08;100196.75;;;8.08;81.29
51297;BME280;37380;45.186;9.792;2024-02-26T01:56:36;100184.41;;;8.09;81.18
51297;BME280;37380;45.186;9.792;2024-02-26T01:59:05;100186.94;;;8.07;81.59
51297;BME280;37380;45.186;9.792;2024-02-26T02:01:32;100180.84;;;7.97;82.58
51297;BME280;37380;45.186;9.792;2024-02-26T02:04:00;100182.59;;;8.00;82.91
51297;BME280;37380;45.186;9.792;2024-02-26T02:06:27;100178.75;;;7.87;83.18
51297;BME280;37380;45.186;9.792;2024-02-26T02:08:57;100176.50;;;7.91;83.24
51297;BME280;37380;45.186;9.792;2024-02-26T02:11:24;100174.53;;;7.97;83.30
51297;BME280;37380;45.186;9.792;2024-02-26T02:13:51;100168.72;;;7.95;82.60
51297;BME280;37380;45.186;9.792;2024-02-26T02:16:18;100174.03;;;7.98;83.05
51297;BME280;37380;45.186;9.792;2024-02-26T02:18:45;100168.72;;;7.95;83.47
51297;BME280;37380;45.186;9.792;2024-02-26T02:21:12;100163.66;;;7.93;83.02
51297;BME280;37380;45.186;9.792;2024-02-26T02:23:39;100160.94;;;7.99;83.54
51297;BME280;37380;45.186;9.792;2024-02-26T02:26:12;100159.63;;;7.89;83.65
51297;BME280;37380;45.186;9.792;2024-02-26T02:28:40;100154.88;;;7.95;83.71
51297;BME280;37380;45.186;9.792;2024-02-26T02:31:07;100150.56;;;7.94;83.90
51297;BME280;37380;45.186;9.792;2024-02-26T02:33:35;100151.81;;;7.93;83.58
51297;BME280;37380;45.186;9.792;2024-02-26T02:36:02;100152.03;;;7.84;84.43
51297;BME280;37380;45.186;9.792;2024-02-26T02:38:29;100149.25;;;7.84;84.25
51297;BME280;37380;45.186;9.792;2024-02-26T02:40:58;100149.81;;;7.88;84.79
51297;BME280;37380;45.186;9.792;2024-02-26T02:43:25;100144.03;;;7.97;83.98
51297;BME280;37380;45.186;9.792;2024-02-26T02:45:52;100136.69;;;7.83;84.25
51297;BME280;37380;45.186;9.792;2024-02-26T02:48:19;100140.47;;;7.85;84.40
51297;BME280;37380;45.186;9.792;2024-02-26T02:50:47;100146.22;;;7.82;85.15
51297;BME280;37380;45.186;9.792;2024-02-26T02:53:14;100151.00;;;7.81;86.03
51297;BME280;37380;45.186;9.792;2024-02-26T02:55:42;100152.28;;;7.86;85.68
51297;BME280;37380;45.186;9.792;2024-02-26T02:58:09;100159.88;;;7.85;86.77
51297;BME280;37380;45.186;9.792;2024-02-26T03:00:36;100157.34;;;7.93;84.74
51297;BME280;37380;45.186;9.792;2024-02-26T03:03:04;100167.16;;;7.88;84.99
51297;BME280;37380;45.186;9.792;2024-02-26T03:05:31;100163.91;;;7.90;84.68
51297;BME280;37380;45.186;9.792;2024-02-26T03:07:58;100157.84;;;7.86;85.08
51297;BME280;37380;45.186;9.792;2024-02-26T03:10:26;100158.84;;;7.83;85.54
51297;BME280;37380;45.186;9.792;2024-02-26T03:12:53;100157.06;;;7.80;85.44
51297;BME280;37380;45.186;9.792;2024-02-26T03:15:20;100153.53;;;7.74;85.94
51297;BME280;37380;45.186;9.792;2024-02-26T03:17:47;100148.75;;;7.80;85.55
51297;BME280;37380;45.186;9.792;2024-02-26T03:20:14;100151.78;;;7.82;85.37
51297;BME280;37380;45.186;9.792;2024-02-26T03:22:41;100148.97;;;7.76;85.82
51297;BME280;37380;45.186;9.792;2024-02-26T03:25:08;100143.22;;;7.80;85.67
51297;BME280;37380;45.186;9.792;2024-02-26T03:27:35;100138.16;;;7.78;86.10
51297;BME280;37380;45.186;9.792;2024-02-26T03:30:02;100137.88;;;7.76;86.62
51297;BME280;37380;45.186;9.792;2024-02-26T03:32:30;100127.56;;;7.71;86.41
51297;BME280;37380;45.186;9.792;2024-02-26T03:34:58;100138.41;;;7.75;86.89
51297;BME280;37380;45.186;9.792;2024-02-26T03:37:26;100127.78;;;7.68;86.53
51297;BME280;37380;45.186;9.792;2024-02-26T03:39:54;100124.50;;;7.69;87.11
51297;BME280;37380;45.186;9.792;2024-02-26T03:42:21;100128.28;;;7.66;87.21
51297;BME280;37380;45.186;9.792;2024-02-26T03:44:48;100133.28;;;7.62;87.71
51297;BME280;37380;45.186;9.792;2024-02-26T03:47:16;100138.09;;;7.62;87.52
51297;BME280;37380;45.186;9.792;2024-02-26T03:49:42;100124.50;;;7.64;87.92
51297;BME280;37380;45.186;9.792;2024-02-26T03:52:10;100123.22;;;7.65;88.09
51297;BME280;37380;45.186;9.792;2024-02-26T03:54:36;100131.75;;;7.56;88.23
51297;BME280;37380;45.186;9.792;2024-02-26T03:57:03;100133.75;;;7.55;88.74
51297;BME280;37380;45.186;9.792;2024-02-26T03:59:31;100133.03;;;7.55;87.89
51297;BME280;37380;45.186;9.792;2024-02-26T04:01:58;100130.25;;;7.60;88.23
51297;BME280;37380;45.186;9.792;2024-02-26T04:04:25;100134.53;;;7.56;88.26
51297;BME280;37380;45.186;9.792;2024-02-26T04:06:52;100134.31;;;7.59;87.56
51297;BME280;37380;45.186;9.792;2024-02-26T04:09:19;100138.09;;;7.62;87.59
51297;BME280;37380;45.186;9.792;2024-02-26T04:11:46;100142.09;;;7.61;87.66
51297;BME280;37380;45.186;9.792;2024-02-26T04:14:13;100132.00;;;7.58;88.41
51297;BME280;37380;45.186;9.792;2024-02-26T04:16:40;100134.53;;;7.56;88.63
51297;BME280;37380;45.186;9.792;2024-02-26T04:19:07;100137.59;;;7.63;87.97
51297;BME280;37380;45.186;9.792;2024-02-26T04:21:34;100146.66;;;7.64;87.27
51297;BME280;37380;45.186;9.792;2024-02-26T04:24:02;100139.88;;;7.70;87.85
51297;BME280;37380;45.186;9.792;2024-02-26T04:26:30;100149.44;;;7.69;87.54
51297;BME280;37380;45.186;9.792;2024-02-26T04:28:57;100145.66;;;7.67;87.32
51297;BME280;37380;45.186;9.792;2024-02-26T04:31:24;100142.88;;;7.61;88.39
51297;BME280;37380;45.186;9.792;2024-02-26T04:33:51;100142.88;;;7.61;88.04
51297;BME280;37380;45.186;9.792;2024-02-26T04:36:18;100144.84;;;7.55;89.41
51297;BME280;37380;45.186;9.792;2024-02-26T04:38:45;100156.19;;;7.57;89.83
51297;BME280;37380;45.186;9.792;2024-02-26T04:41:12;100160.97;;;7.57;89.58
51297;BME280;37380;45.186;9.792;2024-02-26T04:43:40;100163.00;;;7.56;90.68
51297;BME280;37380;45.186;9.792;2024-02-26T04:46:08;100157.97;;;7.60;89.69
51297;BME280;37380;45.186;9.792;2024-02-26T04:48:36;100160.50;;;7.64;89.47
51297;BME280;37380;45.186;9.792;2024-02-26T04:51:05;100167.81;;;7.67;88.19
51297;BME280;37380;45.186;9.792;2024-02-26T04:53:32;100164.22;;;7.55;89.64
51297;BME280;37380;45.186;9.792;2024-02-26T04:55:59;100170.78;;;7.52;90.23
51297;BME280;37380;45.186;9.792;2024-02-26T04:58:26;100157.16;;;7.48;89.63
51297;BME280;37380;45.186;9.792;2024-02-26T05:00:53;100156.44;;;7.54;89.95
51297;BME280;37380;45.186;9.792;2024-02-26T05:03:20;100155.44;;;7.57;89.95
51297;BME280;37380;45.186;9.792;2024-02-26T05:05:47;100149.91;;;7.57;90.27
51297;BME280;37380;45.186;9.792;2024-02-26T05:08:15;100152.13;;;7.47;90.48
51297;BME280;37380;45.186;9.792;2024-02-26T05:10:42;100145.09;;;7.52;91.05
51297;BME280;37380;45.186;9.792;2024-02-26T05:13:10;100152.88;;;7.53;90.62
51297;BME280;37380;45.186;9.792;2024-02-26T05:15:36;100151.13;;;7.56;90.61
51297;BME280;37380;45.186;9.792;2024-02-26T05:18:04;100155.44;;;7.57;90.37
51297;BME280;37380;45.186;9.792;2024-02-26T05:20:31;100147.31;;;7.47;90.50
51297;BME280;37380;45.186;9.792;2024-02-26T05:23:02;100142.31;;;7.52;90.18
51297;BME280;37380;45.186;9.792;2024-02-26T05:25:30;100146.56;;;7.47;90.43
51297;BME280;37380;45.186;9.792;2024-02-26T05:27:58;100145.81;;;7.46;91.03
51297;BME280;37380;45.186;9.792;2024-02-26T05:30:25;100144.03;;;7.43;90.54
51297;BME280;37380;45.186;9.792;2024-02-26T05:32:53;100148.53;;;7.35;90.78
51297;BME280;37380;45.186;9.792;2024-02-26T05:35:21;100146.53;;;7.41;91.68
51297;BME280;37380;45.186;9.792;2024-02-26T05:37:48;100142.97;;;7.35;91.32
51297;BME280;37380;45.186;9.792;2024-02-26T05:40:15;100138.94;;;7.36;90.53
51297;BME280;37380;45.186;9.792;2024-02-26T05:42:43;100137.47;;;7.41;90.63
51297;BME280;37380;45.186;9.792;2024-02-26T05:45:13;100147.09;;;7.51;91.02
51297;BME280;37380;45.186;9.792;2024-02-26T05:47:40;100148.13;;;7.54;91.14
51297;BME280;37380;45.186;9.792;2024-02-26T05:50:10;100142.22;;;7.40;91.16
51297;BME280;37380;45.186;9.792;2024-02-26T05:52:37;100142.28;;;7.46;91.16
51297;BME280;37380;45.186;9.792;2024-02-26T05:55:08;100146.31;;;7.45;91.42
51297;BME280;37380;45.186;9.792;2024-02-26T05:57:35;100149.56;;;7.43;91.13
51297;BME280;37380;45.186;9.792;2024-02-26T06:00:03;100136.69;;;7.35;90.87
51297;BME280;37380;45.186;9.792;2024-02-26T06:02:37;100143.19;;;7.32;92.00
51297;BME280;37380;45.186;9.792;2024-02-26T06:05:04;100137.44;;;7.35;92.09
51297;BME280;37380;45.186;9.792;2024-02-26T06:07:31;100146.19;;;7.28;92.39
51297;BME280;37380;45.186;9.792;2024-02-26T06:09:58;100146.72;;;7.32;91.78
51297;BME280;37380;45.186;9.792;2024-02-26T06:12:25;100153.78;;;7.33;92.01
51297;BME280;37380;45.186;9.792;2024-02-26T06:14:55;100157.81;;;7.32;92.37
51297;BME280;37380;45.186;9.792;2024-02-26T06:17:22;100165.34;;;7.32;92.63
51297;BME280;37380;45.186;9.792;2024-02-26T06:19:49;100164.59;;;7.31;92.27
51297;BME280;37380;45.186;9.792;2024-02-26T06:22:15;100162.31;;;7.30;92.55
51297;BME280;37380;45.186;9.792;2024-02-26T06:24:42;100160.03;;;7.28;92.86
51297;BME280;37380;45.186;9.792;2024-02-26T06:27:09;100155.97;;;7.24;92.67
51297;BME280;37380;45.186;9.792;2024-02-26T06:29:36;100158.22;;;7.20;93.36
51297;BME280;37380;45.186;9.792;2024-02-26T06:32:04;100165.31;;;7.26;93.65
51297;BME280;37380;45.186;9.792;2024-02-26T06:34:31;100169.53;;;7.16;93.42
51297;BME280;37380;45.186;9.792;2024-02-26T06:36:58;100154.38;;;7.12;94.22
51297;BME280;37380;45.186;9.792;2024-02-26T06:39:25;100161.50;;;7.18;93.61
51297;BME280;37380;45.186;9.792;2024-02-26T06:41:53;100160.16;;;7.08;94.06
51297;BME280;37380;45.186;9.792;2024-02-26T06:44:27;100159.19;;;7.11;94.39
51297;BME280;37380;45.186;9.792;2024-02-26T06:47:04;100161.69;;;7.15;93.81
51297;BME280;37380;45.186;9.792;2024-02-26T06:49:31;100156.44;;;7.17;94.41
51297;BME280;37380;45.186;9.792;2024-02-26T06:51:58;100167.56;;;7.22;94.68
51297;BME280;37380;45.186;9.792;2024-02-26T06:54:25;100162.53;;;7.21;95.10
51297;BME280;37380;45.186;9.792;2024-02-26T06:56:52;100167.81;;;7.24;94.32
51297;BME280;37380;45.186;9.792;2024-02-26T06:59:19;100158.47;;;7.22;94.09
51297;BME280;37380;45.186;9.792;2024-02-26T07:01:47;100151.97;;;7.25;94.38
51297;BME280;37380;45.186;9.792;2024-02-26T07:04:14;100148.16;;;7.22;94.69
51297;BME280;37380;45.186;9.792;2024-02-26T07:06:41;100156.47;;;7.22;93.96
51297;BME280;37380;45.186;9.792;2024-02-26T07:09:09;100163.53;;;7.23;93.81
51297;BME280;37380;45.186;9.792;2024-02-26T07:11:39;100177.91;;;7.27;93.91
51297;BME280;37380;45.186;9.792;2024-02-26T07:14:10;100166.03;;;7.21;93.99
51297;BME280;37380;45.186;9.792;2024-02-26T07:16:37;100170.06;;;7.20;94.10
51297;BME280;37380;45.186;9.792;2024-02-26T07:19:04;100164.22;;;7.13;94.89
51297;BME280;37380;45.186;9.792;2024-02-26T07:21:31;100158.72;;;7.18;94.07
51297;BME280;37380;45.186;9.792;2024-02-26T07:23:58;100167.56;;;7.22;93.89
51297;BME280;37380;45.186;9.792;2024-02-26T07:26:25;100167.25;;;7.15;94.53
51297;BME280;37380;45.186;9.792;2024-02-26T07:28:54;100172.81;;;7.20;94.03
51297;BME280;37380;45.186;9.792;2024-02-26T07:31:21;100172.13;;;7.25;93.69
51297;BME280;37380;45.186;9.792;2024-02-26T07:33:49;100167.56;;;7.22;93.66
51297;BME280;37380;45.186;9.792;2024-02-26T07:36:16;100175.84;;;7.22;93.74
51297;BME280;37380;45.186;9.792;2024-02-26T07:38:44;100169.09;;;7.23;94.27
51297;BME280;37380;45.186;9.792;2024-02-26T07:41:13;100172.41;;;7.33;93.92
51297;BME280;37380;45.186;9.792;2024-02-26T07:43:41;100175.94;;;7.33;93.54
51297;BME280;37380;45.186;9.792;2024-02-26T07:46:11;100172.41;;;7.33;93.23
51297;BME280;37380;45.186;9.792;2024-02-26T07:48:38;100178.69;;;7.33;93.40
51297;BME280;37380;45.186;9.792;2024-02-26T07:51:05;100168.34;;;7.28;93.78
51297;BME280;37380;45.186;9.792;2024-02-26T07:53:32;100167.34;;;7.31;93.81
51297;BME280;37380;45.186;9.792;2024-02-26T07:55:59;100176.50;;;7.43;93.68
51297;BME280;37380;45.186;9.792;2024-02-26T07:58:27;100178.75;;;7.39;93.66
51297;BME280;37380;45.186;9.792;2024-02-26T08:00:53;100172.75;;;7.46;93.57
51297;BME280;37380;45.186;9.792;2024-02-26T08:03:20;100177.72;;;7.36;93.77
51297;BME280;37380;45.186;9.792;2024-02-26T08:05:47;100173.44;;;7.35;93.46
51297;BME280;37380;45.186;9.792;2024-02-26T08:08:14;100177.47;;;7.34;94.11
51297;BME280;37380;45.186;9.792;2024-02-26T08:10:41;100174.50;;;7.43;94.22
51297;BME280;37380;45.186;9.792;2024-02-26T08:13:09;100170.44;;;7.39;93.39
51297;BME280;37380;45.186;9.792;2024-02-26T08:15:36;100177.72;;;7.36;93.39
51297;BME280;37380;45.186;9.792;2024-02-26T08:18:06;100172.69;;;7.40;94.19
51297;BME280;37380;45.186;9.792;2024-02-26T08:20:33;100161.09;;;7.36;93.68
51297;BME280;37380;45.186;9.792;2024-02-26T08:23:00;100162.06;;;7.33;93.54
51297;BME280;37380;45.186;9.792;2024-02-26T08:25:27;100163.81;;;7.31;93.77
51297;BME280;37380;45.186;9.792;2024-02-26T08:27:55;100164.06;;;7.27;93.65
51297;BME280;37380;45.186;9.792;2024-02-26T08:30:22;100169.34;;;7.25;93.43
51297;BME280;37380;45.186;9.792;2024-02-26T08:32:49;100168.84;;;7.27;93.60
51297;BME280;37380;45.186;9.792;2024-02-26T08:35:19;100167.09;;;7.29;93.86
51297;BME280;37380;45.186;9.792;2024-02-26T08:37:47;100154.06;;;7.35;93.39
51297;BME280;37380;45.186;9.792;2024-02-26T08:40:15;100157.25;;;7.28;93.87
51297;BME280;37380;45.186;9.792;2024-02-26T08:42:42;100149.72;;;7.29;93.61
51297;BME280;37380;45.186;9.792;2024-02-26T08:45:09;100144.47;;;7.36;93.40
51297;BME280;37380;45.186;9.792;2024-02-26T08:47:37;100138.44;;;7.32;93.82
51297;BME280;37380;45.186;9.792;2024-02-26T08:50:05;100140.94;;;7.36;93.87
51297;BME280;37380;45.186;9.792;2024-02-26T08:52:33;100144.47;;;7.36;94.24
51297;BME280;37380;45.186;9.792;2024-02-26T08:55:00;100146.03;;;7.43;93.86
51297;BME280;37380;45.186;9.792;2024-02-26T08:57:27;100142.78;;;7.44;93.88
51297;BME280;37380;45.186;9.792;2024-02-26T08:59:54;100141.00;;;7.41;94.11
51297;BME280;37380;45.186;9.792;2024-02-26T09:02:21;100151.09;;;7.44;93.85
51297;BME280;37380;45.186;9.792;2024-02-26T09:04:48;100148.06;;;7.42;93.82
51297;BME280;37380;45.186;9.792;2024-02-26T09:07:18;100151.09;;;7.44;94.17
51297;BME280;37380;45.186;9.792;2024-02-26T09:09:45;100146.06;;;7.48;93.69
51297;BME280;37380;45.186;9.792;2024-02-26T09:12:12;100146.56;;;7.47;93.75
51297;BME280;37380;45.186;9.792;2024-02-26T09:14:39;100147.81;;;7.46;94.33
51297;BME280;37380;45.186;9.792;2024-02-26T09:17:06;100135.75;;;7.49;94.40
51297;BME280;37380;45.186;9.792;2024-02-26T09:19:34;100148.56;;;7.46;94.02
51297;BME280;37380;45.186;9.792;2024-02-26T09:22:01;100147.31;;;7.47;94.65
51297;BME280;37380;45.186;9.792;2024-02-26T09:24:30;100136.53;;;7.55;93.89
51297;BME280;37380;45.186;9.792;2024-02-26T09:26:57;100146.88;;;7.55;93.98
51297;BME280;37380;45.186;9.792;2024-02-26T09:29:24;100137.53;;;7.58;94.43
51297;BME280;37380;45.186;9.792;2024-02-26T09:31:53;100132.00;;;7.58;93.80
51297;BME280;37380;45.186;9.792;2024-02-26T09:34:20;100137.53;;;7.52;94.17
51297;BME280;37380;45.186;9.792;2024-02-26T09:36:47;100133.53;;;7.59;94.16
51297;BME280;37380;45.186;9.792;2024-02-26T09:39:14;100138.28;;;7.53;93.67
51297;BME280;37380;45.186;9.792;2024-02-26T09:41:47;100137.78;;;7.54;93.44
51297;BME280;37380;45.186;9.792;2024-02-26T09:44:18;100136.50;;;7.50;92.44
51297;BME280;37380;45.186;9.792;2024-02-26T09:46:51;100138.28;;;7.53;92.97
51297;BME280;37380;45.186;9.792;2024-02-26T09:49:20;100134.78;;;7.52;93.18
51297;BME280;37380;45.186;9.792;2024-02-26T09:51:49;100130.25;;;7.55;93.35
51297;BME280;37380;45.186;9.792;2024-02-26T09:54:16;100131.78;;;7.61;93.47
51297;BME280;37380;45.186;9.792;2024-02-26T09:56:46;100130.25;;;7.55;93.41
51297;BME280;37380;45.186;9.792;2024-02-26T09:59:37;100119.16;;;7.55;92.98
51297;BME280;37380;45.186;9.792;2024-02-26T10:02:13;100126.16;;;7.50;93.91
51297;BME280;37380;45.186;9.792;2024-02-26T10:04:41;100127.69;;;7.51;93.26
51297;BME280;37380;45.186;9.792;2024-02-26T10:07:13;100134.53;;;7.56;93.28
51297;BME280;37380;45.186;9.792;2024-02-26T10:09:41;100125.94;;;7.54;92.77
51297;BME280;37380;45.186;9.792;2024-02-26T10:12:10;100132.25;;;7.60;93.29
51297;BME280;37380;45.186;9.792;2024-02-26T10:14:42;100132.25;;;7.60;92.68
51297;BME280;37380;45.186;9.792;2024-02-26T10:17:10;100133.53;;;7.59;93.18
51297;BME280;37380;45.186;9.792;2024-02-26T10:19:37;100127.00;;;7.62;93.19
51297;BME280;37380;45.186;9.792;2024-02-26T10:22:05;100117.94;;;7.61;92.59
51297;BME280;37380;45.186;9.792;2024-02-26T10:24:32;100132.00;;;7.58;93.62
51297;BME280;37380;45.186;9.792;2024-02-26T10:27:02;100142.09;;;7.61;93.98
51297;BME280;37380;45.186;9.792;2024-02-26T10:29:30;100129.50;;;7.60;92.92
51297;BME280;37380;45.186;9.792;2024-02-26T10:31:57;100134.31;;;7.65;92.86
51297;BME280;37380;45.186;9.792;2024-02-26T10:34:26;100126.00;;;7.65;93.41
51297;BME280;37380;45.186;9.792;2024-02-26T10:36:54;100125.28;;;7.70;93.64
51297;BME280;37380;45.186;9.792;2024-02-26T10:39:21;100131.88;;;7.78;93.04
51297;BME280;37380;45.186;9.792;2024-02-26T10:41:49;100124.31;;;7.78;92.98
51297;BME280;37380;45.186;9.792;2024-02-26T10:44:16;100132.59;;;7.73;92.50
51297;BME280;37380;45.186;9.792;2024-02-26T10:46:47;100118.47;;;7.71;92.75
51297;BME280;37380;45.186;9.792;2024-02-26T10:49:17;100122.25;;;7.68;92.31
51297;BME280;37380;45.186;9.792;2024-02-26T10:51:53;100137.16;;;7.76;91.65
51297;BME280;37380;45.186;9.792;2024-02-26T10:54:26;100131.31;;;7.68;92.62
51297;BME280;37380;45.186;9.792;2024-02-26T10:56:59;100130.34;;;7.71;91.44
51297;BME280;37380;45.186;9.792;2024-02-26T10:59:28;100135.63;;;7.75;91.13
51297;BME280;37380;45.186;9.792;2024-02-26T11:01:56;100124.28;;;7.73;91.13
51297;BME280;37380;45.186;9.792;2024-02-26T11:04:25;100127.56;;;7.77;91.49
51297;BME280;37380;45.186;9.792;2024-02-26T11:06:57;100120.25;;;7.74;92.38
51297;BME280;37380;45.186;9.792;2024-02-26T11:09:24;100107.91;;;7.75;92.04
51297;BME280;37380;45.186;9.792;2024-02-26T11:11:52;100112.44;;;7.72;92.74
51297;BME280;37380;45.186;9.792;2024-02-26T11:14:22;100093.28;;;7.74;90.83
51297;BME280;37380;45.186;9.792;2024-02-26T11:16:54;100100.09;;;7.73;90.07
51297;BME280;37380;45.186;9.792;2024-02-26T11:19:24;100084.22;;;7.68;89.91
51297;BME280;37380;45.186;9.792;2024-02-26T11:21:52;100091.75;;;7.68;88.75
51297;BME280;37380;45.186;9.792;2024-02-26T11:24:25;100088.47;;;7.69;89.38
51297;BME280;37380;45.186;9.792;2024-02-26T11:26:58;100098.03;;;7.63;87.31
51297;BME280;37380;45.186;9.792;2024-02-26T11:29:32;100090.47;;;7.63;88.02
51297;BME280;37380;45.186;9.792;2024-02-26T11:32:01;100076.88;;;7.65;88.07
51297;BME280;37380;45.186;9.792;2024-02-26T11:34:29;100091.25;;;7.64;87.93
51297;BME280;37380;45.186;9.792;2024-02-26T11:36:57;100100.03;;;7.62;88.45
51297;BME280;37380;45.186;9.792;2024-02-26T11:39:35;100081.91;;;7.61;89.41
51297;BME280;37380;45.186;9.792;2024-02-26T11:42:09;100096.53;;;7.67;89.00
51297;BME280;37380;45.186;9.792;2024-02-26T11:44:37;100094.03;;;7.69;88.94
51297;BME280;37380;45.186;9.792;2024-02-26T11:47:19;100093.78;;;7.73;90.16
51297;BME280;37380;45.186;9.792;2024-02-26T11:49:46;100096.81;;;7.75;90.28
51297;BME280;37380;45.186;9.792;2024-02-26T11:52:15;100084.25;;;7.74;90.93
51297;BME280;37380;45.186;9.792;2024-02-26T11:57:31;100087.00;;;7.74;88.87
51297;BME280;37380;45.186;9.792;2024-02-26T12:00:11;100079.94;;;7.73;89.92
51297;BME280;37380;45.186;9.792;2024-02-26T12:02:52;100082.72;;;7.73;89.77
51297;BME280;37380;45.186;9.792;2024-02-26T12:05:25;100072.63;;;7.70;88.25
51297;BME280;37380;45.186;9.792;2024-02-26T12:07:59;100058.78;;;7.75;88.79
51297;BME280;37380;45.186;9.792;2024-02-26T12:10:31;100041.41;;;7.75;88.54
51297;BME280;37380;45.186;9.792;2024-02-26T12:15:36;100035.34;;;7.71;86.43
51297;BME280;37380;45.186;9.792;2024-02-26T12:18:07;100036.84;;;7.72;86.61
51297;BME280;37380;45.186;9.792;2024-02-26T12:20:37;100040.63;;;7.74;85.92
51297;BME280;37380;45.186;9.792;2024-02-26T12:23:04;100047.44;;;7.73;87.35
51297;BME280;37380;45.186;9.792;2024-02-26T12:25:32;100050.97;;;7.68;86.72
51297;BME280;37380;45.186;9.792;2024-02-26T12:28:34;100062.78;;;7.63;86.23
51297;BME280;37380;45.186;9.792;2024-02-26T12:31:01;100049.44;;;7.67;86.55
51297;BME280;37380;45.186;9.792;2024-02-26T12:33:30;100055.00;;;7.73;86.25
51297;BME280;37380;45.186;9.792;2024-02-26T12:35:57;100048.47;;;7.76;86.42
51297;BME280;37380;45.186;9.792;2024-02-26T12:38:26;100060.03;;;7.69;85.44
51297;BME280;37380;45.186;9.792;2024-02-26T12:40:53;100058.75;;;7.64;85.33
51297;BME280;37380;45.186;9.792;2024-02-26T12:43:20;100044.41;;;7.66;86.30
51297;BME280;37380;45.186;9.792;2024-02-26T12:45:48;100050.44;;;7.70;85.13
51297;BME280;37380;45.186;9.792;2024-02-26T12:48:15;100049.47;;;7.73;85.59
51297;BME280;37380;45.186;9.792;2024-02-26T12:50:46;100044.69;;;7.84;83.60
51297;BME280;37380;45.186;9.792;2024-02-26T12:53:16;100042.94;;;7.87;84.72
51297;BME280;37380;45.186;9.792;2024-02-26T12:55:44;100017.25;;;7.81;83.00
51297;BME280;37380;45.186;9.792;2024-02-26T12:58:11;100028.06;;;7.84;84.13
51297;BME280;37380;45.186;9.792;2024-02-26T13:00:39;100017.75;;;7.85;84.08
51297;BME280;37380;45.186;9.792;2024-02-26T13:03:08;100025.56;;;7.92;84.28
51297;BME280;37380;45.186;9.792;2024-02-26T13:05:36;100037.16;;;7.85;84.84
51297;BME280;37380;45.186;9.792;2024-02-26T13:08:03;100033.59;;;7.79;84.54
51297;BME280;37380;45.186;9.792;2024-02-26T13:10:35;100029.81;;;7.71;85.55